KSLN/SLN METAR and TAF weather

Enter ICAO airport designator
Station Type Date Time Source
KSLN METAR 2021/07/24 19:53 UTC NOAA

KSLN 241953Z 11004KT 10SM CLR 37/18 A2995 RMK AO2 SLP126 T03670178


Station Type Date Time Source
KSLN Decoded METAR 2021/07/24 19:53 UTC NOAA

SALINA MUNICIPAL AIRPORT, KS, United States (KSLN) 38-47N 97-39W 385M
Jul 24, 2021 - 03:53 PM EDT / 2021.07.24 1953 UTC
Wind: from the ESE (110 degrees) at 5 MPH (4 KT):0
Visibility: 10 mile(s):0
Sky conditions: clear
Temperature: 98.1 F (36.7 C)
Heat index: 100.2 F (37.9 C):1
Dew Point: 64.0 F (17.8 C)
Relative Humidity: 32%
Pressure (altimeter): 29.95 in. Hg (1014 hPa)
ob: KSLN 241953Z 11004KT 10SM CLR 37/18 A2995 RMK AO2 SLP126 T03670178
cycle: 20

Station Type Date Time Source
KSLN TAF 2021/07/24 18:39 UTC NOAA

TAF KSLN 241735Z 2418/2518 20007KT P6SM FEW060
FM250000 15007KT P6SM FEW100
FM251100 10006KT P6SM FEW100

Example: see airport list